createdAt,value
2022-12-31T00:01:10.872Z,5.07
2022-12-31T00:03:18.692Z,5.06
2022-12-31T00:05:23.494Z,5.05
2022-12-31T00:09:35.756Z,5.09
2022-12-31T00:11:40.687Z,5.10
2022-12-31T00:13:45.951Z,5.05
2022-12-31T00:15:50.643Z,5.00
2022-12-31T00:17:58.011Z,4.97
2022-12-31T00:20:04.191Z,4.95
2022-12-31T00:22:08.952Z,4.96
2022-12-31T00:24:13.693Z,4.98
2022-12-31T00:26:20.067Z,4.99
2022-12-31T00:28:25.041Z,4.98
2022-12-31T00:30:33.976Z,5.01
2022-12-31T00:32:39.012Z,4.99
2022-12-31T00:34:43.685Z,4.96
2022-12-31T00:36:48.470Z,4.92
2022-12-31T00:38:56.364Z,4.91
2022-12-31T00:41:01.275Z,4.91
2022-12-31T00:43:06.017Z,4.91
2022-12-31T00:45:12.008Z,4.90
2022-12-31T00:47:16.738Z,4.91
2022-12-31T00:49:25.171Z,4.91
2022-12-31T00:51:30.487Z,4.91
2022-12-31T00:53:35.997Z,4.90
2022-12-31T00:55:40.816Z,4.88
2022-12-31T00:57:45.655Z,4.82
2022-12-31T00:59:50.405Z,4.76
2022-12-31T01:01:58.086Z,4.73
2022-12-31T01:04:05.305Z,4.72
2022-12-31T01:06:12.862Z,4.69
2022-12-31T01:08:17.710Z,4.67
2022-12-31T01:10:22.704Z,4.67
2022-12-31T01:12:27.708Z,4.67
2022-12-31T01:14:32.422Z,4.65
2022-12-31T01:16:40.934Z,4.60
2022-12-31T01:18:45.820Z,4.51
2022-12-31T01:20:53.242Z,4.46
2022-12-31T01:22:58.363Z,4.45
2022-12-31T01:25:03.106Z,4.48
2022-12-31T01:27:08.349Z,4.46
2022-12-31T01:29:14.153Z,4.43
2022-12-31T01:31:21.007Z,4.44
2022-12-31T01:33:31.434Z,4.45
2022-12-31T01:35:37.395Z,4.45
2022-12-31T01:37:42.299Z,4.44
2022-12-31T01:39:47.081Z,4.40
2022-12-31T01:41:52.216Z,4.39
2022-12-31T01:43:58.984Z,4.43
2022-12-31T01:46:08.045Z,4.48
2022-12-31T01:48:15.393Z,4.46
2022-12-31T01:50:25.302Z,4.47
2022-12-31T01:52:34.856Z,4.47
2022-12-31T01:54:44.765Z,4.47
2022-12-31T01:56:53.700Z,4.44
2022-12-31T01:59:10.626Z,4.43
2022-12-31T02:01:20.019Z,4.43
2022-12-31T02:03:27.208Z,4.34
2022-12-31T02:05:37.692Z,4.28
2022-12-31T02:07:43.107Z,4.25
2022-12-31T02:09:48.108Z,4.27
2022-12-31T02:11:52.798Z,4.33
2022-12-31T02:14:06.105Z,4.35
2022-12-31T02:16:19.469Z,4.39
2022-12-31T02:18:34.864Z,4.45
2022-12-31T02:21:04.365Z,4.51
2022-12-31T02:23:32.635Z,4.52
2022-12-31T02:26:11.620Z,4.52
2022-12-31T02:28:42.640Z,4.52
2022-12-31T02:30:56.044Z,4.49
2022-12-31T02:33:14.527Z,4.55
2022-12-31T02:35:24.493Z,4.58
2022-12-31T02:37:33.687Z,4.61
2022-12-31T02:39:40.636Z,4.63
2022-12-31T02:41:49.544Z,4.66
2022-12-31T02:43:54.274Z,4.67
2022-12-31T02:46:08.018Z,4.68
2022-12-31T02:48:42.796Z,4.73
2022-12-31T02:50:57.991Z,4.76
2022-12-31T02:53:15.107Z,4.77
2022-12-31T02:55:24.966Z,4.74
2022-12-31T02:57:38.141Z,4.74
2022-12-31T02:59:51.856Z,4.75
2022-12-31T03:02:04.565Z,4.78
2022-12-31T03:04:09.680Z,4.80
2022-12-31T03:06:15.354Z,4.82
2022-12-31T03:08:25.134Z,4.82
2022-12-31T03:10:29.904Z,4.80
2022-12-31T03:12:36.255Z,4.81
2022-12-31T03:14:41.310Z,4.83
2022-12-31T03:16:49.005Z,4.82
2022-12-31T03:18:54.704Z,4.81
2022-12-31T03:21:00.540Z,4.82
2022-12-31T03:23:10.086Z,4.79
2022-12-31T03:25:18.611Z,4.70
2022-12-31T03:27:23.314Z,4.61
2022-12-31T03:29:28.011Z,4.56
2022-12-31T03:31:32.805Z,4.57
2022-12-31T03:33:39.971Z,4.61
2022-12-31T03:35:46.182Z,4.67
2022-12-31T03:37:51.649Z,4.70
2022-12-31T03:39:59.214Z,4.69
2022-12-31T03:42:05.389Z,4.68
2022-12-31T03:44:10.115Z,4.65
2022-12-31T03:46:15.277Z,4.66
2022-12-31T03:48:23.677Z,4.61
2022-12-31T03:50:28.846Z,4.57
2022-12-31T03:52:36.415Z,4.58
2022-12-31T03:54:42.311Z,4.61
2022-12-31T03:56:49.696Z,4.61
2022-12-31T03:58:54.532Z,4.68
2022-12-31T04:00:59.436Z,4.74
2022-12-31T04:03:04.381Z,4.69
2022-12-31T04:05:10.107Z,4.57
2022-12-31T04:07:14.862Z,4.54
2022-12-31T04:09:19.837Z,4.54
2022-12-31T04:11:25.256Z,4.50
2022-12-31T04:13:29.969Z,4.51
2022-12-31T04:15:34.800Z,4.55
2022-12-31T04:17:42.053Z,4.57
2022-12-31T04:19:49.579Z,4.57
2022-12-31T04:21:54.307Z,4.58
2022-12-31T04:24:00.318Z,4.54
2022-12-31T04:26:05.199Z,4.50
2022-12-31T04:28:09.869Z,4.51
2022-12-31T04:30:15.402Z,4.53
2022-12-31T04:32:21.510Z,4.55
2022-12-31T04:34:26.247Z,4.52
2022-12-31T04:36:31.210Z,4.53
2022-12-31T04:38:36.045Z,4.49
2022-12-31T04:40:44.879Z,4.45
2022-12-31T04:42:49.546Z,4.41
2022-12-31T04:44:54.330Z,4.40
2022-12-31T04:46:59.021Z,4.39
2022-12-31T04:49:06.417Z,4.41
2022-12-31T04:51:14.656Z,4.42
2022-12-31T04:53:21.238Z,4.40
2022-12-31T04:55:25.971Z,4.32
2022-12-31T04:57:33.692Z,4.26
2022-12-31T04:59:38.364Z,4.21
2022-12-31T05:01:43.090Z,4.18
2022-12-31T05:03:48.330Z,4.19
2022-12-31T05:05:54.725Z,4.20
2022-12-31T05:07:59.544Z,4.22
2022-12-31T05:10:04.808Z,4.26
2022-12-31T05:12:09.617Z,4.27
2022-12-31T05:14:14.309Z,4.30
2022-12-31T05:16:23.553Z,4.35
2022-12-31T05:18:28.358Z,4.38
2022-12-31T05:20:33.107Z,4.39
2022-12-31T05:22:37.849Z,4.39
2022-12-31T05:24:42.794Z,4.40
2022-12-31T05:26:47.556Z,4.45
2022-12-31T05:28:53.173Z,4.52
2022-12-31T05:30:58.321Z,4.54
2022-12-31T05:33:03.882Z,4.54
2022-12-31T05:35:09.876Z,4.53
2022-12-31T05:37:14.725Z,4.53
2022-12-31T05:39:19.425Z,4.48
2022-12-31T05:41:24.172Z,4.44
2022-12-31T05:43:29.329Z,4.41
2022-12-31T05:45:34.094Z,4.42
2022-12-31T05:47:38.937Z,4.40
2022-12-31T05:49:45.198Z,4.41
2022-12-31T05:51:49.947Z,4.43
2022-12-31T05:53:54.684Z,4.48
2022-12-31T05:56:00.242Z,4.53
2022-12-31T05:58:07.903Z,4.59
2022-12-31T06:00:14.859Z,4.60
2022-12-31T06:02:23.295Z,4.62
2022-12-31T06:04:28.741Z,4.63
2022-12-31T06:06:33.716Z,4.67
2022-12-31T06:08:39.031Z,4.67
2022-12-31T06:10:44.135Z,4.69
2022-12-31T06:12:48.879Z,4.71
2022-12-31T06:14:53.752Z,4.69
2022-12-31T06:16:58.504Z,4.65
2022-12-31T06:19:03.519Z,4.66
2022-12-31T06:21:08.539Z,4.66
2022-12-31T06:23:13.355Z,4.64
2022-12-31T06:25:18.475Z,4.65
2022-12-31T06:27:26.182Z,4.65
2022-12-31T06:29:30.900Z,4.67
2022-12-31T06:31:36.333Z,4.68
2022-12-31T06:33:44.067Z,4.71
2022-12-31T06:35:48.987Z,4.69
2022-12-31T06:37:54.614Z,4.73
2022-12-31T06:39:59.494Z,4.72
2022-12-31T06:42:04.440Z,4.72
2022-12-31T06:44:09.404Z,4.73
2022-12-31T06:46:16.211Z,4.74
2022-12-31T06:48:21.099Z,4.70
2022-12-31T06:50:25.847Z,4.66
2022-12-31T06:52:31.850Z,4.64
2022-12-31T06:54:37.464Z,4.66
2022-12-31T06:56:43.573Z,4.69
2022-12-31T06:58:49.436Z,4.75
2022-12-31T07:01:06.544Z,4.80
2022-12-31T07:03:29.467Z,4.86
2022-12-31T07:05:45.908Z,4.93
2022-12-31T07:08:02.209Z,4.98
2022-12-31T07:10:25.587Z,4.96
2022-12-31T07:12:45.517Z,4.94
2022-12-31T07:14:58.050Z,4.97
2022-12-31T07:17:13.223Z,4.99
2022-12-31T07:19:32.611Z,5.01
2022-12-31T07:21:40.159Z,5.06
2022-12-31T07:23:48.844Z,5.10
2022-12-31T07:26:01.134Z,5.13
2022-12-31T07:28:19.390Z,5.15
2022-12-31T07:30:29.906Z,5.21
2022-12-31T07:33:06.289Z,5.26
2022-12-31T07:35:22.821Z,5.30
2022-12-31T07:37:42.383Z,5.32
2022-12-31T07:40:03.308Z,5.34
2022-12-31T07:42:15.269Z,5.30
2022-12-31T07:44:41.943Z,5.27
2022-12-31T07:46:55.024Z,5.29
2022-12-31T07:49:02.067Z,5.35
2022-12-31T07:51:10.033Z,5.40
2022-12-31T07:53:17.620Z,5.42
2022-12-31T07:55:22.309Z,5.40
2022-12-31T07:57:36.987Z,5.39
2022-12-31T07:59:56.219Z,5.42
2022-12-31T08:02:07.246Z,5.47
2022-12-31T08:04:24.527Z,5.53
2022-12-31T08:06:39.041Z,5.56
2022-12-31T08:08:50.906Z,5.58
2022-12-31T08:11:06.611Z,5.65
2022-12-31T08:13:14.518Z,5.72
2022-12-31T08:15:25.384Z,5.81
2022-12-31T08:17:32.721Z,5.89
2022-12-31T08:19:39.195Z,5.93
2022-12-31T08:21:52.584Z,5.98
2022-12-31T08:24:06.552Z,6.04
2022-12-31T08:26:29.451Z,6.08
2022-12-31T08:28:50.660Z,6.08
2022-12-31T08:31:01.846Z,6.10
2022-12-31T08:33:14.194Z,6.12
2022-12-31T08:35:36.076Z,6.17
2022-12-31T08:37:48.302Z,6.26
2022-12-31T08:40:06.896Z,6.30
2022-12-31T08:42:31.188Z,6.37
2022-12-31T08:44:44.618Z,6.43
2022-12-31T08:46:55.712Z,6.40
2022-12-31T08:49:01.275Z,6.37
2022-12-31T08:51:15.267Z,6.38
2022-12-31T08:53:21.742Z,6.46
2022-12-31T08:55:27.434Z,6.60
2022-12-31T08:57:39.926Z,6.73
2022-12-31T08:59:54.465Z,6.75
2022-12-31T09:02:46.210Z,6.76
2022-12-31T09:05:04.517Z,6.80
2022-12-31T09:07:12.761Z,6.84
2022-12-31T09:09:27.806Z,6.87
2022-12-31T09:11:43.232Z,6.92
2022-12-31T09:14:08.501Z,6.99
2022-12-31T09:16:22.782Z,7.03
2022-12-31T09:18:33.133Z,7.08
2022-12-31T09:20:44.155Z,7.12
2022-12-31T09:22:49.855Z,7.16
2022-12-31T09:24:55.191Z,7.22
2022-12-31T09:27:11.354Z,7.25
2022-12-31T09:29:27.809Z,7.22
2022-12-31T09:31:40.378Z,7.16
2022-12-31T09:33:51.585Z,7.15
2022-12-31T09:36:02.071Z,7.21
2022-12-31T09:38:16.650Z,7.25
2022-12-31T09:40:50.746Z,7.31
2022-12-31T09:43:18.933Z,7.34
2022-12-31T09:46:19.257Z,7.35
2022-12-31T09:49:01.862Z,7.32
2022-12-31T09:51:27.787Z,7.39
2022-12-31T09:53:56.315Z,7.44
2022-12-31T09:56:06.332Z,7.49
2022-12-31T09:58:28.977Z,7.55
2022-12-31T10:00:41.567Z,7.62
2022-12-31T10:03:07.199Z,7.63
2022-12-31T10:05:35.637Z,7.60
2022-12-31T10:07:53.509Z,7.62
2022-12-31T10:10:09.449Z,7.66
2022-12-31T10:12:42.431Z,7.73
2022-12-31T10:15:09.837Z,7.81
2022-12-31T10:17:32.646Z,7.88
2022-12-31T10:20:03.095Z,7.92
2022-12-31T10:22:26.597Z,7.97
2022-12-31T10:24:53.316Z,7.95
2022-12-31T10:27:11.228Z,7.97
2022-12-31T10:29:31.390Z,7.93
2022-12-31T10:31:50.277Z,7.99
2022-12-31T10:34:05.839Z,8.07
2022-12-31T10:36:18.743Z,8.20
2022-12-31T10:38:38.519Z,8.28
2022-12-31T10:41:08.528Z,8.38
2022-12-31T10:43:55.486Z,8.44
2022-12-31T10:46:33.315Z,8.44
2022-12-31T10:49:01.013Z,8.50
2022-12-31T10:51:45.455Z,8.51
2022-12-31T10:54:19.185Z,8.51
2022-12-31T10:57:05.951Z,8.54
2022-12-31T10:59:34.082Z,8.60
2022-12-31T11:01:58.022Z,8.65
2022-12-31T11:04:33.510Z,8.72
2022-12-31T11:07:04.650Z,8.70
2022-12-31T11:09:34.558Z,8.66
2022-12-31T11:11:53.085Z,8.72
2022-12-31T11:14:20.521Z,8.76
2022-12-31T11:16:33.903Z,8.75
2022-12-31T11:18:47.088Z,8.68
2022-12-31T11:21:06.999Z,8.58
2022-12-31T11:23:26.938Z,8.52
2022-12-31T11:25:41.121Z,8.51
2022-12-31T11:28:05.379Z,8.48
2022-12-31T11:30:22.645Z,8.47
2022-12-31T11:32:44.335Z,8.50
2022-12-31T11:35:15.632Z,8.55
2022-12-31T11:37:33.260Z,8.58
2022-12-31T11:39:49.068Z,8.59
2022-12-31T11:41:58.942Z,8.64
2022-12-31T11:44:18.052Z,8.69
2022-12-31T11:46:56.001Z,8.73
2022-12-31T11:49:16.270Z,8.71
2022-12-31T11:51:50.047Z,8.70
2022-12-31T11:54:19.747Z,8.65
2022-12-31T11:56:29.412Z,8.62
2022-12-31T11:58:34.349Z,8.66
2022-12-31T12:00:42.871Z,8.71
2022-12-31T12:02:49.565Z,8.80
2022-12-31T12:04:55.983Z,8.87
2022-12-31T12:07:00.798Z,8.93
2022-12-31T12:09:11.216Z,8.96
2022-12-31T12:11:21.609Z,8.97
2022-12-31T12:13:27.847Z,8.95
2022-12-31T12:15:34.333Z,8.98
2022-12-31T12:17:40.793Z,9.01
2022-12-31T12:19:47.746Z,9.01
2022-12-31T12:21:55.772Z,9.07
2022-12-31T12:24:02.305Z,9.11
2022-12-31T12:26:07.681Z,9.15
2022-12-31T12:28:24.369Z,9.18
2022-12-31T12:30:30.004Z,9.18
2022-12-31T12:32:35.119Z,9.19
2022-12-31T12:34:47.545Z,9.19
2022-12-31T12:36:54.736Z,9.24
2022-12-31T12:39:07.880Z,9.29
2022-12-31T12:41:19.819Z,9.27
2022-12-31T12:43:28.767Z,9.31
2022-12-31T12:45:45.140Z,9.36
2022-12-31T12:47:58.418Z,9.44
2022-12-31T12:50:04.097Z,9.46
2022-12-31T12:52:24.062Z,9.44
2022-12-31T12:54:44.871Z,9.46
2022-12-31T12:57:02.247Z,9.51
2022-12-31T12:59:30.487Z,9.56
2022-12-31T13:01:45.200Z,9.56
2022-12-31T13:04:34.076Z,9.57
2022-12-31T13:06:53.147Z,9.62
2022-12-31T13:09:10.924Z,9.63
2022-12-31T13:11:30.817Z,9.65
2022-12-31T13:13:45.607Z,9.65
2022-12-31T13:15:57.182Z,9.63
2022-12-31T13:18:12.945Z,9.62
2022-12-31T13:20:25.445Z,9.65
2022-12-31T13:22:37.514Z,9.67
2022-12-31T13:24:52.524Z,9.75
2022-12-31T13:27:05.848Z,9.84
2022-12-31T13:29:19.307Z,9.92
2022-12-31T13:31:33.284Z,9.98
2022-12-31T13:33:42.577Z,10.01
2022-12-31T13:35:52.915Z,10.05
2022-12-31T13:38:05.631Z,10.08
2022-12-31T13:40:23.900Z,10.11
2022-12-31T13:42:35.678Z,10.16
2022-12-31T13:44:46.979Z,10.18
2022-12-31T13:46:56.643Z,10.19
2022-12-31T13:49:05.065Z,10.20
2022-12-31T13:51:21.092Z,10.25
2022-12-31T13:53:33.756Z,10.26
2022-12-31T13:55:42.715Z,10.22
2022-12-31T13:57:51.268Z,10.22
2022-12-31T14:00:02.204Z,10.20
2022-12-31T14:02:31.758Z,10.18
2022-12-31T14:04:42.541Z,10.18
2022-12-31T14:06:54.642Z,10.18
2022-12-31T14:08:59.445Z,10.13
2022-12-31T14:11:14.473Z,10.11
2022-12-31T14:13:36.066Z,10.11
2022-12-31T14:15:51.703Z,10.10
2022-12-31T14:18:03.610Z,10.06
2022-12-31T14:20:18.405Z,10.02
2022-12-31T14:22:33.965Z,10.00
2022-12-31T14:24:45.428Z,9.94
2022-12-31T14:26:56.283Z,9.91
2022-12-31T14:29:12.823Z,9.91
2022-12-31T14:31:26.997Z,9.89
2022-12-31T14:33:41.973Z,9.89
2022-12-31T14:36:01.023Z,9.88
2022-12-31T14:38:18.157Z,9.86
2022-12-31T14:40:36.719Z,9.85
2022-12-31T14:42:52.837Z,9.86
2022-12-31T14:45:15.173Z,9.87
2022-12-31T14:47:36.846Z,9.89
2022-12-31T14:49:53.474Z,9.85
2022-12-31T14:52:17.924Z,9.84
2022-12-31T14:54:29.531Z,9.81
2022-12-31T14:56:44.177Z,9.79
2022-12-31T14:58:57.156Z,9.77
2022-12-31T15:01:06.207Z,9.80
2022-12-31T15:03:25.967Z,9.80
2022-12-31T15:05:33.545Z,9.80
2022-12-31T15:07:49.999Z,9.78
2022-12-31T15:10:10.083Z,9.75
2022-12-31T15:12:33.307Z,9.70
2022-12-31T15:15:07.869Z,9.61
2022-12-31T15:17:24.327Z,9.54
2022-12-31T15:20:13.261Z,9.51
2022-12-31T15:22:33.651Z,9.49
2022-12-31T15:24:46.080Z,9.49
2022-12-31T15:26:55.827Z,9.50
2022-12-31T15:29:04.001Z,9.50
2022-12-31T15:31:19.416Z,9.50
2022-12-31T15:33:33.696Z,9.54
2022-12-31T15:35:51.640Z,9.60
2022-12-31T15:38:30.306Z,9.65
2022-12-31T15:40:45.910Z,9.67
2022-12-31T15:42:54.687Z,9.69
2022-12-31T15:45:06.281Z,9.67
2022-12-31T15:47:27.759Z,9.66
2022-12-31T15:49:40.766Z,9.58
2022-12-31T15:51:56.207Z,9.54
2022-12-31T15:54:02.374Z,9.56
2022-12-31T15:56:18.930Z,9.55
2022-12-31T15:58:30.079Z,9.55
2022-12-31T16:00:50.475Z,9.52
2022-12-31T16:02:56.266Z,9.48
2022-12-31T16:05:01.325Z,9.43
2022-12-31T16:07:12.043Z,9.39
2022-12-31T16:09:24.307Z,9.32
2022-12-31T16:11:35.652Z,9.27
2022-12-31T16:13:45.601Z,9.25
2022-12-31T16:16:05.778Z,9.23
2022-12-31T16:18:17.152Z,9.24
2022-12-31T16:20:28.172Z,9.24
2022-12-31T16:22:39.963Z,9.24
2022-12-31T16:25:10.825Z,9.24
2022-12-31T16:27:16.518Z,9.22
2022-12-31T16:29:24.059Z,9.21
2022-12-31T16:31:30.682Z,9.23
2022-12-31T16:33:35.580Z,9.30
2022-12-31T16:35:40.689Z,9.36
2022-12-31T16:37:45.559Z,9.42
2022-12-31T16:40:18.602Z,9.50
2022-12-31T16:42:24.866Z,9.59
2022-12-31T16:44:30.744Z,9.70
2022-12-31T16:46:35.661Z,9.70
2022-12-31T16:48:40.627Z,9.74
2022-12-31T16:50:50.596Z,9.77
2022-12-31T16:53:00.381Z,9.76
2022-12-31T16:55:10.082Z,9.77
2022-12-31T16:57:21.401Z,9.80
2022-12-31T16:59:34.712Z,9.86
2022-12-31T17:01:41.895Z,9.90
2022-12-31T17:03:51.442Z,9.93
2022-12-31T17:05:59.687Z,9.95
2022-12-31T17:08:21.812Z,9.95
2022-12-31T17:10:36.043Z,9.95
2022-12-31T17:13:25.392Z,9.94
2022-12-31T17:15:21.381Z,9.91
2022-12-31T17:17:28.981Z,9.90
2022-12-31T17:19:44.808Z,9.88
2022-12-31T17:21:50.066Z,9.84
2022-12-31T17:24:00.510Z,9.79
2022-12-31T17:26:11.483Z,9.73
2022-12-31T17:28:24.115Z,9.68
2022-12-31T17:30:40.454Z,9.63
2022-12-31T17:32:45.455Z,9.60
2022-12-31T17:34:51.255Z,9.60
2022-12-31T17:37:00.580Z,9.56
2022-12-31T17:39:20.896Z,9.48
2022-12-31T17:41:27.185Z,9.43
2022-12-31T17:43:35.496Z,9.38
2022-12-31T17:45:44.504Z,9.32
2022-12-31T17:47:50.838Z,9.35
2022-12-31T17:49:58.192Z,9.36
2022-12-31T17:52:03.017Z,9.34
2022-12-31T17:54:13.759Z,9.34
2022-12-31T17:56:22.061Z,9.35
2022-12-31T17:58:31.089Z,9.38
2022-12-31T18:00:38.327Z,9.38
2022-12-31T18:02:43.101Z,9.36
2022-12-31T18:04:47.899Z,9.32
2022-12-31T18:06:52.725Z,9.30
2022-12-31T18:08:57.470Z,9.31
2022-12-31T18:11:06.506Z,9.32
2022-12-31T18:13:16.272Z,9.33
2022-12-31T18:15:23.628Z,9.35
2022-12-31T18:17:29.690Z,9.36
2022-12-31T18:21:59.295Z,9.19
2022-12-31T18:24:06.141Z,9.12
2022-12-31T18:26:14.835Z,9.09
2022-12-31T18:28:19.746Z,9.09
2022-12-31T18:30:24.449Z,9.10
2022-12-31T18:32:31.270Z,9.11
2022-12-31T18:34:35.995Z,9.08
2022-12-31T18:36:40.695Z,9.08
2022-12-31T18:38:45.632Z,9.03
2022-12-31T18:40:57.153Z,9.01
2022-12-31T18:43:05.164Z,8.95
2022-12-31T18:45:20.767Z,8.85
2022-12-31T18:47:25.577Z,8.76
2022-12-31T18:49:30.371Z,8.73
2022-12-31T18:51:35.434Z,8.75
2022-12-31T18:53:40.101Z,8.76
2022-12-31T18:55:49.614Z,8.77
2022-12-31T18:57:54.373Z,8.79
2022-12-31T19:00:04.636Z,8.81
2022-12-31T19:02:16.898Z,8.84
2022-12-31T19:04:27.570Z,8.88
2022-12-31T19:06:33.013Z,8.91
2022-12-31T19:08:37.882Z,8.91
2022-12-31T19:10:42.708Z,8.90
2022-12-31T19:12:48.078Z,8.89
2022-12-31T19:14:52.880Z,8.86
2022-12-31T19:19:08.455Z,8.90
2022-12-31T19:21:19.194Z,8.96
2022-12-31T19:23:23.863Z,8.99
2022-12-31T19:25:32.936Z,9.01
2022-12-31T19:27:37.969Z,8.96
2022-12-31T19:29:42.674Z,8.92
2022-12-31T19:31:47.529Z,8.87
2022-12-31T19:33:52.333Z,8.84
2022-12-31T19:36:01.419Z,8.81
2022-12-31T19:38:14.749Z,8.83
2022-12-31T19:40:21.964Z,8.83
2022-12-31T19:42:26.630Z,8.84
2022-12-31T19:44:31.326Z,8.81
2022-12-31T19:46:36.080Z,8.74
2022-12-31T19:48:44.198Z,8.70
2022-12-31T19:50:51.410Z,8.70
2022-12-31T19:52:59.712Z,8.69
2022-12-31T19:55:04.874Z,8.64
2022-12-31T19:57:09.535Z,8.62
2022-12-31T19:59:17.071Z,8.65
2022-12-31T20:01:23.548Z,8.65
2022-12-31T20:03:28.743Z,8.64
2022-12-31T20:05:36.699Z,8.66
2022-12-31T20:07:41.846Z,8.65
2022-12-31T20:09:46.568Z,8.68
2022-12-31T20:11:54.571Z,8.72
2022-12-31T20:14:02.537Z,8.77
2022-12-31T20:16:09.815Z,8.81
2022-12-31T20:18:14.678Z,8.86
2022-12-31T20:20:21.467Z,8.88
2022-12-31T20:22:26.198Z,8.90
2022-12-31T20:24:31.001Z,8.84
2022-12-31T20:26:35.739Z,8.81
2022-12-31T20:28:40.483Z,8.81
2022-12-31T20:30:45.234Z,8.82
2022-12-31T20:32:50.170Z,8.82
2022-12-31T20:34:55.412Z,8.83
2022-12-31T20:37:00.144Z,8.86
2022-12-31T20:39:05.004Z,8.88
2022-12-31T20:41:18.746Z,8.90
2022-12-31T20:43:23.510Z,8.92
2022-12-31T20:45:28.441Z,8.89
2022-12-31T20:47:33.084Z,8.88
2022-12-31T20:52:05.403Z,8.87
2022-12-31T20:54:14.311Z,8.86
2022-12-31T20:56:19.663Z,8.76
2022-12-31T20:58:24.449Z,8.67
2022-12-31T21:00:29.774Z,8.64
2022-12-31T21:02:42.609Z,8.61
2022-12-31T21:04:48.380Z,8.59
2022-12-31T21:06:53.313Z,8.59
2022-12-31T21:08:59.805Z,8.59
2022-12-31T21:11:05.974Z,8.60
2022-12-31T21:13:11.193Z,8.59
2022-12-31T21:15:16.083Z,8.59
2022-12-31T21:17:21.163Z,8.58
2022-12-31T21:19:25.933Z,8.58
2022-12-31T21:21:30.736Z,8.58
2022-12-31T21:23:35.917Z,8.60
2022-12-31T21:25:42.678Z,8.57
2022-12-31T21:27:47.462Z,8.58
2022-12-31T21:30:17.716Z,8.60
2022-12-31T21:32:16.915Z,8.62
2022-12-31T21:34:21.644Z,8.63
2022-12-31T21:36:26.437Z,8.63
2022-12-31T21:38:33.819Z,8.61
2022-12-31T21:40:38.535Z,8.63
2022-12-31T21:42:43.383Z,8.62
2022-12-31T21:44:48.629Z,8.61
2022-12-31T21:47:34.037Z,8.60
2022-12-31T21:49:31.555Z,8.55
2022-12-31T21:51:36.260Z,8.51
2022-12-31T21:53:43.915Z,8.49
2022-12-31T21:55:48.719Z,8.50
2022-12-31T22:00:41.814Z,8.48
2022-12-31T22:02:59.155Z,8.47
2022-12-31T22:05:14.881Z,8.45
2022-12-31T22:07:23.322Z,8.44
2022-12-31T22:09:28.085Z,8.41
2022-12-31T22:11:32.987Z,8.41
2022-12-31T22:13:38.712Z,8.40
2022-12-31T22:15:45.967Z,8.40
2022-12-31T22:17:53.817Z,8.39
2022-12-31T22:22:23.382Z,8.37
2022-12-31T22:24:28.153Z,8.39
2022-12-31T22:26:32.892Z,8.41
2022-12-31T22:28:40.668Z,8.37
2022-12-31T22:30:49.374Z,8.32
2022-12-31T22:32:54.160Z,8.30
2022-12-31T22:34:59.057Z,8.26
2022-12-31T22:37:27.584Z,8.26
2022-12-31T22:39:43.312Z,8.29
2022-12-31T22:41:49.317Z,8.31
2022-12-31T22:44:02.564Z,8.30
2022-12-31T22:46:13.754Z,8.30
2022-12-31T22:48:18.597Z,8.30
2022-12-31T22:50:23.377Z,8.30
2022-12-31T22:52:28.127Z,8.29
2022-12-31T22:54:32.847Z,8.29
2022-12-31T22:56:37.560Z,8.30
2022-12-31T22:58:42.472Z,8.31
2022-12-31T23:00:47.381Z,8.32
2022-12-31T23:02:55.363Z,8.31
2022-12-31T23:05:15.550Z,8.32
2022-12-31T23:07:21.723Z,8.35
2022-12-31T23:09:26.459Z,8.36
2022-12-31T23:11:35.129Z,8.36
2022-12-31T23:13:49.517Z,8.40
2022-12-31T23:15:58.087Z,8.42
2022-12-31T23:18:02.892Z,8.43
2022-12-31T23:20:12.944Z,8.43
2022-12-31T23:22:20.481Z,8.45
2022-12-31T23:24:27.795Z,8.49
2022-12-31T23:26:32.602Z,8.51
2022-12-31T23:28:38.808Z,8.51
2022-12-31T23:30:44.527Z,8.51
2022-12-31T23:32:49.589Z,8.46
2022-12-31T23:34:54.563Z,8.37
2022-12-31T23:36:59.330Z,8.29
2022-12-31T23:39:04.233Z,8.23
2022-12-31T23:41:15.857Z,8.22
2022-12-31T23:43:22.737Z,8.22
2022-12-31T23:45:32.822Z,8.20
2022-12-31T23:47:38.263Z,8.17
2022-12-31T23:49:43.009Z,8.14
2022-12-31T23:51:47.904Z,8.10
2022-12-31T23:53:52.905Z,8.05
2022-12-31T23:56:12.865Z,8.02
2022-12-31T23:58:22.859Z,7.98
